sensor_id;sensor_type;location;lat;lon;timestamp;P1;durP1;ratioP1;P2;durP2;ratioP2
16673;SDS011;8450;52.654;10.326;2023-11-19T00:01:31;1.60;;;1.50;;
16673;SDS011;8450;52.654;10.326;2023-11-19T00:03:57;1.63;;;1.53;;
16673;SDS011;8450;52.654;10.326;2023-11-19T00:06:23;2.07;;;1.87;;
16673;SDS011;8450;52.654;10.326;2023-11-19T00:08:50;1.63;;;1.53;;
16673;SDS011;8450;52.654;10.326;2023-11-19T00:11:16;1.70;;;1.60;;
16673;SDS011;8450;52.654;10.326;2023-11-19T00:13:42;1.63;;;1.53;;
16673;SDS011;8450;52.654;10.326;2023-11-19T00:16:07;2.00;;;1.80;;
16673;SDS011;8450;52.654;10.326;2023-11-19T00:18:34;2.50;;;1.90;;
16673;SDS011;8450;52.654;10.326;2023-11-19T00:21:01;2.60;;;2.03;;
16673;SDS011;8450;52.654;10.326;2023-11-19T00:23:27;2.97;;;1.80;;
16673;SDS011;8450;52.654;10.326;2023-11-19T00:25:53;2.00;;;1.50;;
16673;SDS011;8450;52.654;10.326;2023-11-19T00:28:18;2.23;;;1.80;;
16673;SDS011;8450;52.654;10.326;2023-11-19T00:30:44;2.00;;;1.80;;
16673;SDS011;8450;52.654;10.326;2023-11-19T00:33:10;1.63;;;1.53;;
16673;SDS011;8450;52.654;10.326;2023-11-19T00:35:35;1.63;;;1.53;;
16673;SDS011;8450;52.654;10.326;2023-11-19T00:38:01;2.47;;;1.63;;
16673;SDS011;8450;52.654;10.326;2023-11-19T00:40:27;2.10;;;1.87;;
16673;SDS011;8450;52.654;10.326;2023-11-19T00:42:53;2.50;;;2.00;;
16673;SDS011;8450;52.654;10.326;2023-11-19T00:45:19;3.37;;;2.00;;
16673;SDS011;8450;52.654;10.326;2023-11-19T00:47:44;2.07;;;1.87;;
16673;SDS011;8450;52.654;10.326;2023-11-19T00:50:10;3.83;;;1.63;;
16673;SDS011;8450;52.654;10.326;2023-11-19T00:52:36;2.03;;;1.80;;
16673;SDS011;8450;52.654;10.326;2023-11-19T00:55:03;1.97;;;1.83;;
16673;SDS011;8450;52.654;10.326;2023-11-19T00:57:30;1.33;;;1.23;;
16673;SDS011;8450;52.654;10.326;2023-11-19T00:59:57;1.70;;;1.60;;
16673;SDS011;8450;52.654;10.326;2023-11-19T01:02:26;1.97;;;1.77;;
16673;SDS011;8450;52.654;10.326;2023-11-19T01:04:51;3.50;;;2.27;;
16673;SDS011;8450;52.654;10.326;2023-11-19T01:07:17;2.37;;;2.03;;
16673;SDS011;8450;52.654;10.326;2023-11-19T01:09:43;1.67;;;1.53;;
16673;SDS011;8450;52.654;10.326;2023-11-19T01:12:09;3.10;;;1.73;;
16673;SDS011;8450;52.654;10.326;2023-11-19T01:14:35;3.87;;;1.87;;
16673;SDS011;8450;52.654;10.326;2023-11-19T01:17:01;4.60;;;2.60;;
16673;SDS011;8450;52.654;10.326;2023-11-19T01:19:27;2.50;;;2.23;;
16673;SDS011;8450;52.654;10.326;2023-11-19T01:21:54;7.53;;;3.00;;
16673;SDS011;8450;52.654;10.326;2023-11-19T01:24:20;2.60;;;2.40;;
16673;SDS011;8450;52.654;10.326;2023-11-19T01:26:46;2.23;;;1.93;;
16673;SDS011;8450;52.654;10.326;2023-11-19T01:29:12;3.07;;;2.73;;
16673;SDS011;8450;52.654;10.326;2023-11-19T01:31:41;1.40;;;1.30;;
16673;SDS011;8450;52.654;10.326;2023-11-19T01:34:07;3.00;;;2.50;;
16673;SDS011;8450;52.654;10.326;2023-11-19T01:36:33;3.97;;;2.70;;
16673;SDS011;8450;52.654;10.326;2023-11-19T01:38:59;3.00;;;2.70;;
16673;SDS011;8450;52.654;10.326;2023-11-19T01:41:25;3.37;;;2.57;;
16673;SDS011;8450;52.654;10.326;2023-11-19T01:43:51;3.77;;;2.73;;
16673;SDS011;8450;52.654;10.326;2023-11-19T01:46:16;2.53;;;2.33;;
16673;SDS011;8450;52.654;10.326;2023-11-19T01:48:43;2.40;;;2.20;;
16673;SDS011;8450;52.654;10.326;2023-11-19T01:51:10;2.30;;;1.97;;
16673;SDS011;8450;52.654;10.326;2023-11-19T01:53:38;4.33;;;3.13;;
16673;SDS011;8450;52.654;10.326;2023-11-19T01:56:04;4.70;;;2.50;;
16673;SDS011;8450;52.654;10.326;2023-11-19T01:58:34;5.67;;;2.83;;
16673;SDS011;8450;52.654;10.326;2023-11-19T02:01:00;2.50;;;2.30;;
16673;SDS011;8450;52.654;10.326;2023-11-19T02:03:29;2.90;;;2.50;;
16673;SDS011;8450;52.654;10.326;2023-11-19T02:05:57;2.30;;;2.00;;
16673;SDS011;8450;52.654;10.326;2023-11-19T02:08:24;2.50;;;2.30;;
16673;SDS011;8450;52.654;10.326;2023-11-19T02:10:51;3.00;;;2.70;;
16673;SDS011;8450;52.654;10.326;2023-11-19T02:13:18;3.83;;;3.00;;
16673;SDS011;8450;52.654;10.326;2023-11-19T02:15:44;3.23;;;2.83;;
16673;SDS011;8450;52.654;10.326;2023-11-19T02:18:22;3.00;;;2.70;;
16673;SDS011;8450;52.654;10.326;2023-11-19T02:20:52;2.30;;;2.10;;
16673;SDS011;8450;52.654;10.326;2023-11-19T02:23:19;3.10;;;2.50;;
16673;SDS011;8450;52.654;10.326;2023-11-19T02:25:47;3.20;;;2.90;;
16673;SDS011;8450;52.654;10.326;2023-11-19T02:28:18;2.93;;;2.10;;
16673;SDS011;8450;52.654;10.326;2023-11-19T02:30:44;2.80;;;2.53;;
16673;SDS011;8450;52.654;10.326;2023-11-19T02:33:10;2.77;;;2.50;;
16673;SDS011;8450;52.654;10.326;2023-11-19T02:35:35;3.70;;;3.30;;
16673;SDS011;8450;52.654;10.326;2023-11-19T02:38:01;3.30;;;2.90;;
16673;SDS011;8450;52.654;10.326;2023-11-19T02:40:28;3.33;;;2.47;;
16673;SDS011;8450;52.654;10.326;2023-11-19T02:42:54;5.20;;;3.00;;
16673;SDS011;8450;52.654;10.326;2023-11-19T02:45:23;1.40;;;1.30;;
16673;SDS011;8450;52.654;10.326;2023-11-19T02:47:50;3.47;;;2.67;;
16673;SDS011;8450;52.654;10.326;2023-11-19T02:50:17;4.17;;;2.63;;
16673;SDS011;8450;52.654;10.326;2023-11-19T02:52:50;4.13;;;2.87;;
16673;SDS011;8450;52.654;10.326;2023-11-19T02:55:17;6.30;;;2.93;;
16673;SDS011;8450;52.654;10.326;2023-11-19T02:57:44;3.07;;;2.63;;
16673;SDS011;8450;52.654;10.326;2023-11-19T03:00:19;3.30;;;2.80;;
16673;SDS011;8450;52.654;10.326;2023-11-19T03:02:50;4.87;;;2.77;;
16673;SDS011;8450;52.654;10.326;2023-11-19T03:05:24;3.40;;;2.73;;
16673;SDS011;8450;52.654;10.326;2023-11-19T03:07:51;3.17;;;2.70;;
16673;SDS011;8450;52.654;10.326;2023-11-19T03:10:17;2.97;;;2.70;;
16673;SDS011;8450;52.654;10.326;2023-11-19T03:12:44;3.03;;;2.43;;
16673;SDS011;8450;52.654;10.326;2023-11-19T03:15:10;2.93;;;2.60;;
16673;SDS011;8450;52.654;10.326;2023-11-19T03:17:40;6.07;;;2.60;;
16673;SDS011;8450;52.654;10.326;2023-11-19T03:20:07;3.00;;;2.50;;
16673;SDS011;8450;52.654;10.326;2023-11-19T03:22:40;3.17;;;2.60;;
16673;SDS011;8450;52.654;10.326;2023-11-19T03:25:09;5.13;;;2.53;;
16673;SDS011;8450;52.654;10.326;2023-11-19T03:27:35;3.57;;;3.07;;
16673;SDS011;8450;52.654;10.326;2023-11-19T03:30:02;2.50;;;2.23;;
16673;SDS011;8450;52.654;10.326;2023-11-19T03:32:30;2.53;;;2.33;;
16673;SDS011;8450;52.654;10.326;2023-11-19T03:34:57;3.83;;;3.03;;
16673;SDS011;8450;52.654;10.326;2023-11-19T03:37:24;8.77;;;2.73;;
16673;SDS011;8450;52.654;10.326;2023-11-19T03:39:51;4.90;;;2.87;;
16673;SDS011;8450;52.654;10.326;2023-11-19T03:42:18;5.23;;;3.50;;
16673;SDS011;8450;52.654;10.326;2023-11-19T03:44:45;3.47;;;2.70;;
16673;SDS011;8450;52.654;10.326;2023-11-19T03:47:11;5.10;;;3.57;;
16673;SDS011;8450;52.654;10.326;2023-11-19T03:49:37;5.57;;;3.47;;
16673;SDS011;8450;52.654;10.326;2023-11-19T03:52:02;3.00;;;2.80;;
16673;SDS011;8450;52.654;10.326;2023-11-19T03:54:28;3.43;;;3.13;;
16673;SDS011;8450;52.654;10.326;2023-11-19T03:56:54;2.80;;;2.50;;
16673;SDS011;8450;52.654;10.326;2023-11-19T03:59:19;3.23;;;2.77;;
16673;SDS011;8450;52.654;10.326;2023-11-19T04:01:45;2.57;;;2.37;;
16673;SDS011;8450;52.654;10.326;2023-11-19T04:04:11;2.87;;;2.30;;
16673;SDS011;8450;52.654;10.326;2023-11-19T04:06:37;3.00;;;2.53;;
16673;SDS011;8450;52.654;10.326;2023-11-19T04:09:03;4.03;;;2.53;;
16673;SDS011;8450;52.654;10.326;2023-11-19T04:11:28;4.63;;;2.53;;
16673;SDS011;8450;52.654;10.326;2023-11-19T04:13:54;2.33;;;2.13;;
16673;SDS011;8450;52.654;10.326;2023-11-19T04:16:25;2.60;;;2.40;;
16673;SDS011;8450;52.654;10.326;2023-11-19T04:18:53;3.77;;;2.60;;
16673;SDS011;8450;52.654;10.326;2023-11-19T04:21:18;3.07;;;2.70;;
16673;SDS011;8450;52.654;10.326;2023-11-19T04:23:44;4.90;;;2.97;;
16673;SDS011;8450;52.654;10.326;2023-11-19T04:26:09;2.93;;;2.63;;
16673;SDS011;8450;52.654;10.326;2023-11-19T04:28:35;3.27;;;2.80;;
16673;SDS011;8450;52.654;10.326;2023-11-19T04:31:01;4.27;;;2.90;;
16673;SDS011;8450;52.654;10.326;2023-11-19T04:33:28;4.07;;;2.37;;
16673;SDS011;8450;52.654;10.326;2023-11-19T04:35:54;6.33;;;2.73;;
16673;SDS011;8450;52.654;10.326;2023-11-19T04:38:19;3.00;;;2.70;;
16673;SDS011;8450;52.654;10.326;2023-11-19T04:40:45;3.97;;;2.70;;
16673;SDS011;8450;52.654;10.326;2023-11-19T04:43:10;7.13;;;4.00;;
16673;SDS011;8450;52.654;10.326;2023-11-19T04:45:36;3.97;;;3.07;;
16673;SDS011;8450;52.654;10.326;2023-11-19T04:48:01;3.07;;;2.70;;
16673;SDS011;8450;52.654;10.326;2023-11-19T04:50:27;4.77;;;3.53;;
16673;SDS011;8450;52.654;10.326;2023-11-19T04:52:53;4.50;;;3.73;;
16673;SDS011;8450;52.654;10.326;2023-11-19T04:55:19;4.97;;;3.20;;
16673;SDS011;8450;52.654;10.326;2023-11-19T04:57:44;5.43;;;4.27;;
16673;SDS011;8450;52.654;10.326;2023-11-19T05:00:10;6.97;;;4.20;;
16673;SDS011;8450;52.654;10.326;2023-11-19T05:02:36;6.83;;;3.90;;
16673;SDS011;8450;52.654;10.326;2023-11-19T05:05:02;4.30;;;3.70;;
16673;SDS011;8450;52.654;10.326;2023-11-19T05:07:29;6.17;;;4.43;;
16673;SDS011;8450;52.654;10.326;2023-11-19T05:09:55;5.90;;;4.40;;
16673;SDS011;8450;52.654;10.326;2023-11-19T05:12:21;7.47;;;4.70;;
16673;SDS011;8450;52.654;10.326;2023-11-19T05:14:47;7.50;;;4.17;;
16673;SDS011;8450;52.654;10.326;2023-11-19T05:17:16;7.93;;;4.93;;
16673;SDS011;8450;52.654;10.326;2023-11-19T05:19:44;5.07;;;4.17;;
16673;SDS011;8450;52.654;10.326;2023-11-19T05:22:10;6.47;;;4.27;;
16673;SDS011;8450;52.654;10.326;2023-11-19T05:24:36;8.93;;;6.40;;
16673;SDS011;8450;52.654;10.326;2023-11-19T05:27:01;8.73;;;5.77;;
16673;SDS011;8450;52.654;10.326;2023-11-19T05:29:27;9.73;;;5.83;;
16673;SDS011;8450;52.654;10.326;2023-11-19T05:31:53;7.07;;;5.00;;
16673;SDS011;8450;52.654;10.326;2023-11-19T05:34:20;10.37;;;5.90;;
16673;SDS011;8450;52.654;10.326;2023-11-19T05:36:46;7.97;;;5.70;;
16673;SDS011;8450;52.654;10.326;2023-11-19T05:39:12;9.03;;;5.60;;
16673;SDS011;8450;52.654;10.326;2023-11-19T05:41:37;8.27;;;4.97;;
16673;SDS011;8450;52.654;10.326;2023-11-19T05:44:03;9.73;;;6.47;;
16673;SDS011;8450;52.654;10.326;2023-11-19T05:46:28;10.53;;;6.63;;
16673;SDS011;8450;52.654;10.326;2023-11-19T05:48:54;10.10;;;6.70;;
16673;SDS011;8450;52.654;10.326;2023-11-19T05:51:19;9.60;;;6.27;;
16673;SDS011;8450;52.654;10.326;2023-11-19T05:53:45;8.30;;;5.30;;
16673;SDS011;8450;52.654;10.326;2023-11-19T05:56:10;9.53;;;6.83;;
16673;SDS011;8450;52.654;10.326;2023-11-19T05:58:36;8.67;;;6.53;;
16673;SDS011;8450;52.654;10.326;2023-11-19T06:01:02;12.67;;;6.80;;
16673;SDS011;8450;52.654;10.326;2023-11-19T06:03:29;9.33;;;5.37;;
16673;SDS011;8450;52.654;10.326;2023-11-19T06:05:55;11.60;;;7.93;;
16673;SDS011;8450;52.654;10.326;2023-11-19T06:08:20;9.87;;;6.37;;
16673;SDS011;8450;52.654;10.326;2023-11-19T06:10:46;13.53;;;6.67;;
16673;SDS011;8450;52.654;10.326;2023-11-19T06:13:12;10.47;;;7.27;;
16673;SDS011;8450;52.654;10.326;2023-11-19T06:15:40;12.70;;;6.63;;
16673;SDS011;8450;52.654;10.326;2023-11-19T06:18:06;13.60;;;8.23;;
16673;SDS011;8450;52.654;10.326;2023-11-19T06:20:33;11.87;;;7.10;;
16673;SDS011;8450;52.654;10.326;2023-11-19T06:22:59;11.83;;;7.33;;
16673;SDS011;8450;52.654;10.326;2023-11-19T06:25:25;17.10;;;8.27;;
16673;SDS011;8450;52.654;10.326;2023-11-19T06:27:50;17.07;;;8.40;;
16673;SDS011;8450;52.654;10.326;2023-11-19T06:30:16;17.97;;;8.93;;
16673;SDS011;8450;52.654;10.326;2023-11-19T06:32:43;19.67;;;8.90;;
16673;SDS011;8450;52.654;10.326;2023-11-19T06:35:08;15.87;;;8.27;;
16673;SDS011;8450;52.654;10.326;2023-11-19T06:37:35;16.17;;;8.70;;
16673;SDS011;8450;52.654;10.326;2023-11-19T06:40:01;17.50;;;7.73;;
16673;SDS011;8450;52.654;10.326;2023-11-19T06:42:27;15.73;;;7.03;;
16673;SDS011;8450;52.654;10.326;2023-11-19T06:44:52;24.87;;;10.23;;
16673;SDS011;8450;52.654;10.326;2023-11-19T06:47:18;22.53;;;10.10;;
16673;SDS011;8450;52.654;10.326;2023-11-19T06:49:44;24.57;;;9.43;;
16673;SDS011;8450;52.654;10.326;2023-11-19T06:52:10;19.53;;;9.27;;
16673;SDS011;8450;52.654;10.326;2023-11-19T06:54:36;24.27;;;9.27;;
16673;SDS011;8450;52.654;10.326;2023-11-19T06:57:04;26.40;;;10.67;;
16673;SDS011;8450;52.654;10.326;2023-11-19T06:59:30;23.33;;;9.97;;
16673;SDS011;8450;52.654;10.326;2023-11-19T07:01:56;24.97;;;10.70;;
16673;SDS011;8450;52.654;10.326;2023-11-19T07:04:21;18.47;;;7.90;;
16673;SDS011;8450;52.654;10.326;2023-11-19T07:06:47;21.63;;;9.93;;
16673;SDS011;8450;52.654;10.326;2023-11-19T07:09:13;21.30;;;9.77;;
16673;SDS011;8450;52.654;10.326;2023-11-19T07:11:39;24.93;;;10.47;;
16673;SDS011;8450;52.654;10.326;2023-11-19T07:14:06;20.73;;;9.03;;
16673;SDS011;8450;52.654;10.326;2023-11-19T07:16:33;24.50;;;10.03;;
16673;SDS011;8450;52.654;10.326;2023-11-19T07:19:02;23.50;;;10.63;;
16673;SDS011;8450;52.654;10.326;2023-11-19T07:21:28;22.20;;;11.10;;
16673;SDS011;8450;52.654;10.326;2023-11-19T07:23:54;30.60;;;12.57;;
16673;SDS011;8450;52.654;10.326;2023-11-19T07:26:21;33.37;;;11.83;;
16673;SDS011;8450;52.654;10.326;2023-11-19T07:28:48;28.80;;;12.87;;
16673;SDS011;8450;52.654;10.326;2023-11-19T07:31:14;38.97;;;14.50;;
16673;SDS011;8450;52.654;10.326;2023-11-19T07:33:40;23.83;;;11.13;;
16673;SDS011;8450;52.654;10.326;2023-11-19T07:36:09;25.23;;;12.07;;
16673;SDS011;8450;52.654;10.326;2023-11-19T07:38:35;26.30;;;12.37;;
16673;SDS011;8450;52.654;10.326;2023-11-19T07:41:01;26.80;;;11.30;;
16673;SDS011;8450;52.654;10.326;2023-11-19T07:43:27;25.67;;;11.17;;
16673;SDS011;8450;52.654;10.326;2023-11-19T07:45:52;31.80;;;12.73;;
16673;SDS011;8450;52.654;10.326;2023-11-19T07:48:18;40.97;;;14.47;;
16673;SDS011;8450;52.654;10.326;2023-11-19T07:50:48;34.37;;;13.70;;
16673;SDS011;8450;52.654;10.326;2023-11-19T07:53:18;40.50;;;14.93;;
16673;SDS011;8450;52.654;10.326;2023-11-19T07:55:44;42.00;;;11.73;;
16673;SDS011;8450;52.654;10.326;2023-11-19T07:58:10;40.00;;;14.40;;
16673;SDS011;8450;52.654;10.326;2023-11-19T08:00:37;48.43;;;19.73;;
16673;SDS011;8450;52.654;10.326;2023-11-19T08:03:03;30.67;;;11.93;;
16673;SDS011;8450;52.654;10.326;2023-11-19T08:05:30;37.20;;;14.40;;
16673;SDS011;8450;52.654;10.326;2023-11-19T08:07:56;33.43;;;14.30;;
16673;SDS011;8450;52.654;10.326;2023-11-19T08:10:22;37.73;;;14.40;;
16673;SDS011;8450;52.654;10.326;2023-11-19T08:12:47;57.23;;;16.40;;
16673;SDS011;8450;52.654;10.326;2023-11-19T08:15:13;47.30;;;15.30;;
16673;SDS011;8450;52.654;10.326;2023-11-19T08:17:39;53.67;;;13.90;;
16673;SDS011;8450;52.654;10.326;2023-11-19T08:20:05;35.80;;;12.23;;
16673;SDS011;8450;52.654;10.326;2023-11-19T08:22:35;56.50;;;14.43;;
16673;SDS011;8450;52.654;10.326;2023-11-19T08:25:06;50.47;;;14.30;;
16673;SDS011;8450;52.654;10.326;2023-11-19T08:27:33;45.13;;;11.17;;
16673;SDS011;8450;52.654;10.326;2023-11-19T08:29:58;40.63;;;13.03;;
16673;SDS011;8450;52.654;10.326;2023-11-19T08:32:24;45.83;;;15.90;;
16673;SDS011;8450;52.654;10.326;2023-11-19T08:34:53;50.03;;;13.17;;
16673;SDS011;8450;52.654;10.326;2023-11-19T08:37:19;35.33;;;11.30;;
16673;SDS011;8450;52.654;10.326;2023-11-19T08:39:47;27.13;;;9.67;;
16673;SDS011;8450;52.654;10.326;2023-11-19T08:42:13;35.73;;;10.93;;
16673;SDS011;8450;52.654;10.326;2023-11-19T08:44:39;33.10;;;8.77;;
16673;SDS011;8450;52.654;10.326;2023-11-19T08:47:08;43.03;;;14.13;;
16673;SDS011;8450;52.654;10.326;2023-11-19T08:49:34;38.77;;;10.10;;
16673;SDS011;8450;52.654;10.326;2023-11-19T08:52:00;48.13;;;14.67;;
16673;SDS011;8450;52.654;10.326;2023-11-19T08:54:25;41.37;;;12.90;;
16673;SDS011;8450;52.654;10.326;2023-11-19T08:56:51;44.83;;;11.33;;
16673;SDS011;8450;52.654;10.326;2023-11-19T08:59:17;38.17;;;7.43;;
16673;SDS011;8450;52.654;10.326;2023-11-19T09:01:44;32.73;;;12.10;;
16673;SDS011;8450;52.654;10.326;2023-11-19T09:04:09;41.20;;;12.17;;
16673;SDS011;8450;52.654;10.326;2023-11-19T09:06:35;36.97;;;11.23;;
16673;SDS011;8450;52.654;10.326;2023-11-19T09:09:01;37.87;;;10.97;;
16673;SDS011;8450;52.654;10.326;2023-11-19T09:11:28;42.43;;;13.03;;
16673;SDS011;8450;52.654;10.326;2023-11-19T09:13:53;38.10;;;11.93;;
16673;SDS011;8450;52.654;10.326;2023-11-19T09:16:19;38.47;;;10.40;;
16673;SDS011;8450;52.654;10.326;2023-11-19T09:18:44;53.03;;;12.13;;
16673;SDS011;8450;52.654;10.326;2023-11-19T09:21:10;43.67;;;10.40;;
16673;SDS011;8450;52.654;10.326;2023-11-19T09:23:37;42.00;;;9.87;;
16673;SDS011;8450;52.654;10.326;2023-11-19T09:26:08;47.20;;;9.60;;
16673;SDS011;8450;52.654;10.326;2023-11-19T09:28:36;22.33;;;7.40;;
16673;SDS011;8450;52.654;10.326;2023-11-19T09:31:02;39.93;;;10.47;;
16673;SDS011;8450;52.654;10.326;2023-11-19T09:33:31;39.93;;;7.73;;
16673;SDS011;8450;52.654;10.326;2023-11-19T09:35:56;35.67;;;8.13;;
16673;SDS011;8450;52.654;10.326;2023-11-19T09:38:22;38.97;;;9.23;;
16673;SDS011;8450;52.654;10.326;2023-11-19T09:40:48;27.70;;;8.40;;
16673;SDS011;8450;52.654;10.326;2023-11-19T09:43:14;33.33;;;8.17;;
16673;SDS011;8450;52.654;10.326;2023-11-19T09:45:48;30.70;;;7.33;;
16673;SDS011;8450;52.654;10.326;2023-11-19T09:48:17;22.40;;;6.30;;
16673;SDS011;8450;52.654;10.326;2023-11-19T09:50:44;25.17;;;6.53;;
16673;SDS011;8450;52.654;10.326;2023-11-19T09:53:11;30.33;;;7.90;;
16673;SDS011;8450;52.654;10.326;2023-11-19T09:55:37;35.37;;;8.27;;
16673;SDS011;8450;52.654;10.326;2023-11-19T09:58:03;30.73;;;7.33;;
16673;SDS011;8450;52.654;10.326;2023-11-19T10:00:30;29.93;;;7.27;;
16673;SDS011;8450;52.654;10.326;2023-11-19T10:02:56;27.33;;;7.00;;
16673;SDS011;8450;52.654;10.326;2023-11-19T10:05:24;20.83;;;6.20;;
16673;SDS011;8450;52.654;10.326;2023-11-19T10:07:50;26.57;;;6.60;;
16673;SDS011;8450;52.654;10.326;2023-11-19T10:10:16;25.87;;;7.63;;
16673;SDS011;8450;52.654;10.326;2023-11-19T10:12:44;25.00;;;6.63;;
16673;SDS011;8450;52.654;10.326;2023-11-19T10:15:15;28.80;;;7.07;;
16673;SDS011;8450;52.654;10.326;2023-11-19T10:17:46;32.20;;;6.90;;
16673;SDS011;8450;52.654;10.326;2023-11-19T10:20:11;26.90;;;6.70;;
16673;SDS011;8450;52.654;10.326;2023-11-19T10:22:37;20.33;;;5.67;;
16673;SDS011;8450;52.654;10.326;2023-11-19T10:25:03;25.60;;;8.33;;
16673;SDS011;8450;52.654;10.326;2023-11-19T10:27:29;24.13;;;5.97;;
16673;SDS011;8450;52.654;10.326;2023-11-19T10:29:59;23.40;;;6.00;;
16673;SDS011;8450;52.654;10.326;2023-11-19T10:32:24;28.73;;;7.27;;
16673;SDS011;8450;52.654;10.326;2023-11-19T10:34:50;25.20;;;6.67;;
16673;SDS011;8450;52.654;10.326;2023-11-19T10:37:28;26.53;;;7.20;;
16673;SDS011;8450;52.654;10.326;2023-11-19T10:39:56;27.47;;;7.97;;
16673;SDS011;8450;52.654;10.326;2023-11-19T10:42:22;20.50;;;5.73;;
16673;SDS011;8450;52.654;10.326;2023-11-19T10:44:48;30.17;;;6.00;;
16673;SDS011;8450;52.654;10.326;2023-11-19T10:47:14;23.57;;;6.60;;
16673;SDS011;8450;52.654;10.326;2023-11-19T10:49:43;28.67;;;7.90;;
16673;SDS011;8450;52.654;10.326;2023-11-19T10:52:10;30.33;;;6.70;;
16673;SDS011;8450;52.654;10.326;2023-11-19T10:54:40;31.23;;;7.00;;
16673;SDS011;8450;52.654;10.326;2023-11-19T10:57:09;27.20;;;6.13;;
16673;SDS011;8450;52.654;10.326;2023-11-19T10:59:42;29.23;;;5.50;;
16673;SDS011;8450;52.654;10.326;2023-11-19T11:02:09;18.10;;;6.17;;
16673;SDS011;8450;52.654;10.326;2023-11-19T11:04:41;23.00;;;6.23;;
16673;SDS011;8450;52.654;10.326;2023-11-19T11:07:08;25.87;;;6.97;;
16673;SDS011;8450;52.654;10.326;2023-11-19T11:09:34;29.03;;;6.60;;
16673;SDS011;8450;52.654;10.326;2023-11-19T11:12:00;26.83;;;6.17;;
16673;SDS011;8450;52.654;10.326;2023-11-19T11:14:26;26.77;;;6.17;;
16673;SDS011;8450;52.654;10.326;2023-11-19T11:16:53;31.60;;;7.33;;
16673;SDS011;8450;52.654;10.326;2023-11-19T11:19:18;23.80;;;6.67;;
16673;SDS011;8450;52.654;10.326;2023-11-19T11:21:46;15.00;;;4.17;;
16673;SDS011;8450;52.654;10.326;2023-11-19T11:29:31;29.10;;;6.97;;
16673;SDS011;8450;52.654;10.326;2023-11-19T11:32:21;24.97;;;6.70;;
16673;SDS011;8450;52.654;10.326;2023-11-19T11:37:48;17.03;;;5.27;;
16673;SDS011;8450;52.654;10.326;2023-11-19T11:40:18;30.80;;;6.37;;
16673;SDS011;8450;52.654;10.326;2023-11-19T11:42:44;28.10;;;6.53;;
16673;SDS011;8450;52.654;10.326;2023-11-19T11:45:10;18.70;;;5.57;;
16673;SDS011;8450;52.654;10.326;2023-11-19T11:50:13;32.33;;;5.37;;
16673;SDS011;8450;52.654;10.326;2023-11-19T11:55:24;34.67;;;7.97;;
16673;SDS011;8450;52.654;10.326;2023-11-19T11:57:53;28.47;;;7.00;;
16673;SDS011;8450;52.654;10.326;2023-11-19T12:00:26;28.57;;;5.77;;
16673;SDS011;8450;52.654;10.326;2023-11-19T12:02:56;26.70;;;7.10;;
16673;SDS011;8450;52.654;10.326;2023-11-19T12:05:22;33.70;;;7.00;;
16673;SDS011;8450;52.654;10.326;2023-11-19T12:07:54;25.00;;;6.43;;
16673;SDS011;8450;52.654;10.326;2023-11-19T12:10:24;30.70;;;6.27;;
16673;SDS011;8450;52.654;10.326;2023-11-19T12:12:52;21.50;;;6.70;;
16673;SDS011;8450;52.654;10.326;2023-11-19T12:15:18;19.07;;;5.17;;
16673;SDS011;8450;52.654;10.326;2023-11-19T12:20:17;19.03;;;5.50;;
16673;SDS011;8450;52.654;10.326;2023-11-19T12:22:44;19.30;;;5.83;;
16673;SDS011;8450;52.654;10.326;2023-11-19T12:25:11;27.17;;;5.67;;
16673;SDS011;8450;52.654;10.326;2023-11-19T12:27:41;19.70;;;5.80;;
16673;SDS011;8450;52.654;10.326;2023-11-19T12:30:08;32.33;;;10.13;;
16673;SDS011;8450;52.654;10.326;2023-11-19T12:32:38;22.77;;;5.70;;
16673;SDS011;8450;52.654;10.326;2023-11-19T12:35:05;28.77;;;7.77;;
16673;SDS011;8450;52.654;10.326;2023-11-19T12:37:31;20.37;;;5.87;;
16673;SDS011;8450;52.654;10.326;2023-11-19T12:39:57;26.23;;;6.90;;
16673;SDS011;8450;52.654;10.326;2023-11-19T12:42:36;23.83;;;6.23;;
16673;SDS011;8450;52.654;10.326;2023-11-19T12:45:02;24.20;;;5.10;;
16673;SDS011;8450;52.654;10.326;2023-11-19T12:47:29;23.97;;;6.97;;
16673;SDS011;8450;52.654;10.326;2023-11-19T12:49:55;25.93;;;6.40;;
16673;SDS011;8450;52.654;10.326;2023-11-19T12:52:22;18.83;;;5.47;;
16673;SDS011;8450;52.654;10.326;2023-11-19T12:54:48;21.77;;;5.60;;
16673;SDS011;8450;52.654;10.326;2023-11-19T12:57:15;27.07;;;5.67;;
16673;SDS011;8450;52.654;10.326;2023-11-19T12:59:40;26.97;;;6.50;;
16673;SDS011;8450;52.654;10.326;2023-11-19T13:02:06;25.43;;;5.83;;
16673;SDS011;8450;52.654;10.326;2023-11-19T13:04:32;25.30;;;6.83;;
16673;SDS011;8450;52.654;10.326;2023-11-19T13:06:58;31.57;;;6.53;;
16673;SDS011;8450;52.654;10.326;2023-11-19T13:09:27;19.00;;;5.97;;
16673;SDS011;8450;52.654;10.326;2023-11-19T13:11:54;18.67;;;5.27;;
16673;SDS011;8450;52.654;10.326;2023-11-19T13:14:21;22.80;;;6.27;;
16673;SDS011;8450;52.654;10.326;2023-11-19T13:16:47;25.33;;;6.67;;
16673;SDS011;8450;52.654;10.326;2023-11-19T13:19:13;22.77;;;6.03;;
16673;SDS011;8450;52.654;10.326;2023-11-19T13:21:44;18.23;;;4.97;;
16673;SDS011;8450;52.654;10.326;2023-11-19T13:24:12;21.37;;;6.23;;
16673;SDS011;8450;52.654;10.326;2023-11-19T13:26:38;20.23;;;4.93;;
16673;SDS011;8450;52.654;10.326;2023-11-19T13:29:03;23.83;;;6.47;;
16673;SDS011;8450;52.654;10.326;2023-11-19T13:31:29;15.73;;;5.37;;
16673;SDS011;8450;52.654;10.326;2023-11-19T13:33:55;18.23;;;5.23;;
16673;SDS011;8450;52.654;10.326;2023-11-19T13:36:21;21.93;;;5.87;;
16673;SDS011;8450;52.654;10.326;2023-11-19T13:38:47;20.70;;;4.87;;
16673;SDS011;8450;52.654;10.326;2023-11-19T13:41:13;16.97;;;4.73;;
16673;SDS011;8450;52.654;10.326;2023-11-19T13:43:39;16.77;;;4.53;;
16673;SDS011;8450;52.654;10.326;2023-11-19T13:46:05;22.07;;;5.37;;
16673;SDS011;8450;52.654;10.326;2023-11-19T13:48:31;18.30;;;5.03;;
16673;SDS011;8450;52.654;10.326;2023-11-19T13:50:57;18.23;;;5.53;;
16673;SDS011;8450;52.654;10.326;2023-11-19T13:53:22;15.70;;;4.93;;
16673;SDS011;8450;52.654;10.326;2023-11-19T13:55:49;23.83;;;7.23;;
16673;SDS011;8450;52.654;10.326;2023-11-19T13:58:14;17.83;;;5.57;;
16673;SDS011;8450;52.654;10.326;2023-11-19T14:00:41;22.43;;;6.77;;
16673;SDS011;8450;52.654;10.326;2023-11-19T14:03:08;20.70;;;5.87;;
16673;SDS011;8450;52.654;10.326;2023-11-19T14:05:35;23.23;;;6.33;;
16673;SDS011;8450;52.654;10.326;2023-11-19T14:08:01;19.50;;;5.63;;
16673;SDS011;8450;52.654;10.326;2023-11-19T14:10:26;24.93;;;6.17;;
16673;SDS011;8450;52.654;10.326;2023-11-19T14:12:52;27.47;;;6.23;;
16673;SDS011;8450;52.654;10.326;2023-11-19T14:15:17;28.30;;;6.20;;
16673;SDS011;8450;52.654;10.326;2023-11-19T14:17:43;20.37;;;5.50;;
16673;SDS011;8450;52.654;10.326;2023-11-19T14:20:09;20.90;;;6.43;;
16673;SDS011;8450;52.654;10.326;2023-11-19T14:22:39;20.80;;;4.60;;
16673;SDS011;8450;52.654;10.326;2023-11-19T14:25:05;31.83;;;7.10;;
16673;SDS011;8450;52.654;10.326;2023-11-19T14:27:38;23.20;;;5.43;;
16673;SDS011;8450;52.654;10.326;2023-11-19T14:30:05;18.13;;;5.40;;
16673;SDS011;8450;52.654;10.326;2023-11-19T14:32:32;24.03;;;5.37;;
16673;SDS011;8450;52.654;10.326;2023-11-19T14:34:57;20.67;;;5.60;;
16673;SDS011;8450;52.654;10.326;2023-11-19T14:37:23;20.73;;;5.37;;
16673;SDS011;8450;52.654;10.326;2023-11-19T14:39:49;18.60;;;5.40;;
16673;SDS011;8450;52.654;10.326;2023-11-19T14:42:16;25.70;;;6.10;;
16673;SDS011;8450;52.654;10.326;2023-11-19T14:44:42;25.20;;;5.87;;
16673;SDS011;8450;52.654;10.326;2023-11-19T14:47:07;22.37;;;5.80;;
16673;SDS011;8450;52.654;10.326;2023-11-19T14:49:36;18.50;;;5.20;;
16673;SDS011;8450;52.654;10.326;2023-11-19T14:52:02;21.17;;;6.43;;